sensor_id;sensor_type;location;lat;lon;timestamp;P1;durP1;ratioP1;P2;durP2;ratioP2
3443;SDS011;1736;52.068;6.968;2023-09-12T00:00:20;96.87;;;44.00;;
3443;SDS011;1736;52.068;6.968;2023-09-12T00:02:48;82.67;;;41.83;;
3443;SDS011;1736;52.068;6.968;2023-09-12T00:05:15;96.60;;;43.60;;
3443;SDS011;1736;52.068;6.968;2023-09-12T00:07:41;94.20;;;43.07;;
3443;SDS011;1736;52.068;6.968;2023-09-12T00:10:08;81.23;;;38.57;;
3443;SDS011;1736;52.068;6.968;2023-09-12T00:12:37;79.27;;;35.50;;
3443;SDS011;1736;52.068;6.968;2023-09-12T00:15:03;76.80;;;36.20;;
3443;SDS011;1736;52.068;6.968;2023-09-12T00:17:30;74.97;;;37.90;;
3443;SDS011;1736;52.068;6.968;2023-09-12T00:19:57;78.13;;;38.00;;
3443;SDS011;1736;52.068;6.968;2023-09-12T00:22:24;81.63;;;36.87;;
3443;SDS011;1736;52.068;6.968;2023-09-12T00:24:50;72.10;;;37.17;;
3443;SDS011;1736;52.068;6.968;2023-09-12T00:27:17;77.53;;;36.90;;
3443;SDS011;1736;52.068;6.968;2023-09-12T00:29:45;74.37;;;36.83;;
3443;SDS011;1736;52.068;6.968;2023-09-12T00:32:11;64.63;;;31.50;;
3443;SDS011;1736;52.068;6.968;2023-09-12T00:34:38;64.70;;;33.47;;
3443;SDS011;1736;52.068;6.968;2023-09-12T00:37:05;75.70;;;33.50;;
3443;SDS011;1736;52.068;6.968;2023-09-12T00:39:31;68.10;;;34.30;;
3443;SDS011;1736;52.068;6.968;2023-09-12T00:41:58;73.70;;;36.47;;
3443;SDS011;1736;52.068;6.968;2023-09-12T00:44:24;72.57;;;34.20;;
3443;SDS011;1736;52.068;6.968;2023-09-12T00:46:52;80.73;;;35.50;;
3443;SDS011;1736;52.068;6.968;2023-09-12T00:49:20;67.20;;;33.63;;
3443;SDS011;1736;52.068;6.968;2023-09-12T00:51:48;70.37;;;33.37;;
3443;SDS011;1736;52.068;6.968;2023-09-12T00:54:16;58.87;;;30.93;;
3443;SDS011;1736;52.068;6.968;2023-09-12T00:56:43;90.37;;;37.60;;
3443;SDS011;1736;52.068;6.968;2023-09-12T00:59:10;87.57;;;36.60;;
3443;SDS011;1736;52.068;6.968;2023-09-12T01:01:37;89.60;;;39.10;;
3443;SDS011;1736;52.068;6.968;2023-09-12T01:04:06;100.47;;;41.03;;
3443;SDS011;1736;52.068;6.968;2023-09-12T01:06:33;83.27;;;40.20;;
3443;SDS011;1736;52.068;6.968;2023-09-12T01:09:00;79.87;;;38.20;;
3443;SDS011;1736;52.068;6.968;2023-09-12T01:11:27;71.03;;;36.57;;
3443;SDS011;1736;52.068;6.968;2023-09-12T01:13:54;70.37;;;35.57;;
3443;SDS011;1736;52.068;6.968;2023-09-12T01:16:21;66.63;;;32.53;;
3443;SDS011;1736;52.068;6.968;2023-09-12T01:18:48;60.00;;;31.90;;
3443;SDS011;1736;52.068;6.968;2023-09-12T01:27:42;66.07;;;32.57;;
3443;SDS011;1736;52.068;6.968;2023-09-12T01:30:12;62.17;;;30.53;;
3443;SDS011;1736;52.068;6.968;2023-09-12T01:32:41;60.40;;;29.97;;
3443;SDS011;1736;52.068;6.968;2023-09-12T01:35:08;52.90;;;27.03;;
3443;SDS011;1736;52.068;6.968;2023-09-12T01:37:35;49.00;;;27.57;;
3443;SDS011;1736;52.068;6.968;2023-09-12T01:40:02;54.43;;;29.53;;
3443;SDS011;1736;52.068;6.968;2023-09-12T01:42:30;47.57;;;25.13;;
3443;SDS011;1736;52.068;6.968;2023-09-12T01:45:03;48.77;;;24.73;;
3443;SDS011;1736;52.068;6.968;2023-09-12T01:47:30;44.23;;;23.93;;
3443;SDS011;1736;52.068;6.968;2023-09-12T01:49:59;42.63;;;25.20;;
3443;SDS011;1736;52.068;6.968;2023-09-12T01:52:27;38.80;;;22.50;;
3443;SDS011;1736;52.068;6.968;2023-09-12T01:54:54;43.23;;;24.10;;
3443;SDS011;1736;52.068;6.968;2023-09-12T01:57:22;40.80;;;23.80;;
3443;SDS011;1736;52.068;6.968;2023-09-12T01:59:49;40.30;;;23.23;;
3443;SDS011;1736;52.068;6.968;2023-09-12T02:02:17;37.80;;;23.67;;
3443;SDS011;1736;52.068;6.968;2023-09-12T02:04:45;42.23;;;23.70;;
3443;SDS011;1736;52.068;6.968;2023-09-12T02:07:17;45.43;;;25.07;;
3443;SDS011;1736;52.068;6.968;2023-09-12T02:09:43;39.53;;;22.40;;
3443;SDS011;1736;52.068;6.968;2023-09-12T02:12:10;38.27;;;22.53;;
3443;SDS011;1736;52.068;6.968;2023-09-12T02:14:36;43.53;;;23.27;;
3443;SDS011;1736;52.068;6.968;2023-09-12T02:17:03;37.00;;;22.80;;
3443;SDS011;1736;52.068;6.968;2023-09-12T02:19:31;44.77;;;23.90;;
3443;SDS011;1736;52.068;6.968;2023-09-12T02:21:57;42.47;;;22.87;;
3443;SDS011;1736;52.068;6.968;2023-09-12T02:24:24;36.70;;;21.43;;
3443;SDS011;1736;52.068;6.968;2023-09-12T02:26:51;36.57;;;22.00;;
3443;SDS011;1736;52.068;6.968;2023-09-12T02:29:17;40.37;;;22.13;;
3443;SDS011;1736;52.068;6.968;2023-09-12T02:31:44;39.03;;;22.60;;
3443;SDS011;1736;52.068;6.968;2023-09-12T02:34:10;37.60;;;21.20;;
3443;SDS011;1736;52.068;6.968;2023-09-12T02:36:38;37.00;;;21.70;;
3443;SDS011;1736;52.068;6.968;2023-09-12T02:39:05;36.60;;;20.63;;
3443;SDS011;1736;52.068;6.968;2023-09-12T02:41:31;40.70;;;22.70;;
3443;SDS011;1736;52.068;6.968;2023-09-12T02:43:58;34.63;;;20.63;;
3443;SDS011;1736;52.068;6.968;2023-09-12T02:46:25;40.17;;;20.63;;
3443;SDS011;1736;52.068;6.968;2023-09-12T02:48:51;34.87;;;20.40;;
3443;SDS011;1736;52.068;6.968;2023-09-12T02:51:18;34.23;;;20.37;;
3443;SDS011;1736;52.068;6.968;2023-09-12T02:53:46;35.80;;;20.60;;
3443;SDS011;1736;52.068;6.968;2023-09-12T02:56:12;37.17;;;20.30;;
3443;SDS011;1736;52.068;6.968;2023-09-12T02:58:39;32.33;;;20.00;;
3443;SDS011;1736;52.068;6.968;2023-09-12T03:01:05;34.93;;;20.10;;
3443;SDS011;1736;52.068;6.968;2023-09-12T03:03:32;36.30;;;19.20;;
3443;SDS011;1736;52.068;6.968;2023-09-12T03:05:59;37.70;;;20.63;;
3443;SDS011;1736;52.068;6.968;2023-09-12T03:08:27;37.10;;;21.67;;
3443;SDS011;1736;52.068;6.968;2023-09-12T03:10:56;38.30;;;21.77;;
3443;SDS011;1736;52.068;6.968;2023-09-12T03:13:23;36.40;;;21.30;;
3443;SDS011;1736;52.068;6.968;2023-09-12T03:15:51;28.87;;;19.00;;
3443;SDS011;1736;52.068;6.968;2023-09-12T03:18:17;37.70;;;20.80;;
3443;SDS011;1736;52.068;6.968;2023-09-12T03:20:44;33.80;;;20.60;;
3443;SDS011;1736;52.068;6.968;2023-09-12T03:23:10;35.83;;;20.97;;
3443;SDS011;1736;52.068;6.968;2023-09-12T03:25:37;29.07;;;18.67;;
3443;SDS011;1736;52.068;6.968;2023-09-12T03:28:06;33.07;;;19.10;;
3443;SDS011;1736;52.068;6.968;2023-09-12T03:30:33;30.63;;;17.70;;
3443;SDS011;1736;52.068;6.968;2023-09-12T03:33:01;28.90;;;17.47;;
3443;SDS011;1736;52.068;6.968;2023-09-12T03:35:28;28.53;;;17.07;;
3443;SDS011;1736;52.068;6.968;2023-09-12T03:37:55;27.57;;;18.13;;
3443;SDS011;1736;52.068;6.968;2023-09-12T03:40:21;26.53;;;16.80;;
3443;SDS011;1736;52.068;6.968;2023-09-12T03:42:48;21.97;;;15.60;;
3443;SDS011;1736;52.068;6.968;2023-09-12T03:45:16;23.10;;;15.57;;
3443;SDS011;1736;52.068;6.968;2023-09-12T03:47:42;25.63;;;14.70;;
3443;SDS011;1736;52.068;6.968;2023-09-12T03:50:11;22.10;;;15.17;;
3443;SDS011;1736;52.068;6.968;2023-09-12T03:52:38;22.43;;;14.63;;
3443;SDS011;1736;52.068;6.968;2023-09-12T03:55:05;22.73;;;14.57;;
3443;SDS011;1736;52.068;6.968;2023-09-12T03:57:32;21.83;;;14.50;;
3443;SDS011;1736;52.068;6.968;2023-09-12T03:59:59;23.87;;;15.87;;
3443;SDS011;1736;52.068;6.968;2023-09-12T04:02:27;21.60;;;15.00;;
3443;SDS011;1736;52.068;6.968;2023-09-12T04:04:54;28.10;;;16.70;;
3443;SDS011;1736;52.068;6.968;2023-09-12T04:07:24;22.40;;;15.80;;
3443;SDS011;1736;52.068;6.968;2023-09-12T04:09:51;26.57;;;16.30;;
3443;SDS011;1736;52.068;6.968;2023-09-12T04:12:17;24.13;;;14.97;;
3443;SDS011;1736;52.068;6.968;2023-09-12T04:14:44;23.43;;;15.97;;
3443;SDS011;1736;52.068;6.968;2023-09-12T04:17:10;48.87;;;21.17;;
3443;SDS011;1736;52.068;6.968;2023-09-12T04:19:38;52.90;;;22.07;;
3443;SDS011;1736;52.068;6.968;2023-09-12T04:22:05;36.60;;;18.43;;
3443;SDS011;1736;52.068;6.968;2023-09-12T04:24:31;28.83;;;15.93;;
3443;SDS011;1736;52.068;6.968;2023-09-12T04:26:58;25.07;;;15.80;;
3443;SDS011;1736;52.068;6.968;2023-09-12T04:29:24;22.73;;;15.53;;
3443;SDS011;1736;52.068;6.968;2023-09-12T04:31:52;23.73;;;14.57;;
3443;SDS011;1736;52.068;6.968;2023-09-12T04:34:24;26.00;;;16.60;;
3443;SDS011;1736;52.068;6.968;2023-09-12T04:36:52;27.13;;;18.30;;
3443;SDS011;1736;52.068;6.968;2023-09-12T04:39:19;31.47;;;20.50;;
3443;SDS011;1736;52.068;6.968;2023-09-12T04:41:45;25.37;;;18.20;;
3443;SDS011;1736;52.068;6.968;2023-09-12T04:44:12;23.40;;;17.63;;
3443;SDS011;1736;52.068;6.968;2023-09-12T04:46:39;27.50;;;17.70;;
3443;SDS011;1736;52.068;6.968;2023-09-12T04:49:05;22.43;;;15.60;;
3443;SDS011;1736;52.068;6.968;2023-09-12T04:51:32;34.83;;;18.47;;
3443;SDS011;1736;52.068;6.968;2023-09-12T04:54:00;27.60;;;18.40;;
3443;SDS011;1736;52.068;6.968;2023-09-12T04:56:26;31.07;;;17.47;;
3443;SDS011;1736;52.068;6.968;2023-09-12T04:58:53;23.83;;;16.27;;
3443;SDS011;1736;52.068;6.968;2023-09-12T05:01:19;29.43;;;18.17;;
3443;SDS011;1736;52.068;6.968;2023-09-12T05:03:46;25.73;;;16.53;;
3443;SDS011;1736;52.068;6.968;2023-09-12T05:06:12;27.60;;;16.80;;
3443;SDS011;1736;52.068;6.968;2023-09-12T05:08:39;23.90;;;16.30;;
3443;SDS011;1736;52.068;6.968;2023-09-12T05:11:07;28.13;;;17.50;;
3443;SDS011;1736;52.068;6.968;2023-09-12T05:13:34;31.57;;;16.77;;
3443;SDS011;1736;52.068;6.968;2023-09-12T05:16:01;26.03;;;17.37;;
3443;SDS011;1736;52.068;6.968;2023-09-12T05:18:28;27.23;;;17.30;;
3443;SDS011;1736;52.068;6.968;2023-09-12T05:20:54;33.50;;;17.27;;
3443;SDS011;1736;52.068;6.968;2023-09-12T05:23:21;26.13;;;15.30;;
3443;SDS011;1736;52.068;6.968;2023-09-12T05:25:47;23.33;;;15.97;;
3443;SDS011;1736;52.068;6.968;2023-09-12T05:28:15;23.50;;;15.97;;
3443;SDS011;1736;52.068;6.968;2023-09-12T05:30:42;21.10;;;14.77;;
3443;SDS011;1736;52.068;6.968;2023-09-12T05:33:09;23.20;;;15.30;;
3443;SDS011;1736;52.068;6.968;2023-09-12T05:35:35;26.23;;;15.43;;
3443;SDS011;1736;52.068;6.968;2023-09-12T05:38:02;22.70;;;14.73;;
3443;SDS011;1736;52.068;6.968;2023-09-12T05:40:29;22.83;;;15.70;;
3443;SDS011;1736;52.068;6.968;2023-09-12T05:42:56;28.60;;;16.10;;
3443;SDS011;1736;52.068;6.968;2023-09-12T05:45:24;24.30;;;15.40;;
3443;SDS011;1736;52.068;6.968;2023-09-12T05:47:51;22.90;;;16.20;;
3443;SDS011;1736;52.068;6.968;2023-09-12T05:50:17;29.43;;;16.63;;
3443;SDS011;1736;52.068;6.968;2023-09-12T05:52:44;27.50;;;16.87;;
3443;SDS011;1736;52.068;6.968;2023-09-12T05:55:10;34.20;;;17.87;;
3443;SDS011;1736;52.068;6.968;2023-09-12T05:57:37;23.97;;;16.50;;
3443;SDS011;1736;52.068;6.968;2023-09-12T06:00:04;22.47;;;16.13;;
3443;SDS011;1736;52.068;6.968;2023-09-12T06:02:36;25.37;;;18.37;;
3443;SDS011;1736;52.068;6.968;2023-09-12T06:05:03;31.07;;;19.20;;
3443;SDS011;1736;52.068;6.968;2023-09-12T06:07:30;30.43;;;18.70;;
3443;SDS011;1736;52.068;6.968;2023-09-12T06:09:57;29.73;;;19.40;;
3443;SDS011;1736;52.068;6.968;2023-09-12T06:12:24;34.43;;;18.27;;
3443;SDS011;1736;52.068;6.968;2023-09-12T06:14:50;28.87;;;18.70;;
3443;SDS011;1736;52.068;6.968;2023-09-12T06:17:18;28.90;;;18.67;;
3443;SDS011;1736;52.068;6.968;2023-09-12T06:19:46;28.30;;;17.80;;
3443;SDS011;1736;52.068;6.968;2023-09-12T06:22:14;33.50;;;18.60;;
3443;SDS011;1736;52.068;6.968;2023-09-12T06:24:42;32.27;;;19.63;;
3443;SDS011;1736;52.068;6.968;2023-09-12T06:27:08;26.43;;;18.73;;
3443;SDS011;1736;52.068;6.968;2023-09-12T06:29:37;25.90;;;18.97;;
3443;SDS011;1736;52.068;6.968;2023-09-12T06:32:04;24.80;;;16.90;;
3443;SDS011;1736;52.068;6.968;2023-09-12T06:34:30;31.33;;;19.00;;
3443;SDS011;1736;52.068;6.968;2023-09-12T06:36:58;31.90;;;20.63;;
3443;SDS011;1736;52.068;6.968;2023-09-12T06:39:25;31.53;;;19.17;;
3443;SDS011;1736;52.068;6.968;2023-09-12T06:41:51;45.43;;;19.50;;
3443;SDS011;1736;52.068;6.968;2023-09-12T06:44:18;28.73;;;18.80;;
3443;SDS011;1736;52.068;6.968;2023-09-12T06:46:44;28.67;;;18.83;;
3443;SDS011;1736;52.068;6.968;2023-09-12T06:49:11;34.07;;;20.40;;
3443;SDS011;1736;52.068;6.968;2023-09-12T06:51:38;34.37;;;20.80;;
3443;SDS011;1736;52.068;6.968;2023-09-12T06:54:06;36.13;;;21.00;;
3443;SDS011;1736;52.068;6.968;2023-09-12T06:56:32;30.23;;;20.50;;
3443;SDS011;1736;52.068;6.968;2023-09-12T06:59:02;34.40;;;21.63;;
3443;SDS011;1736;52.068;6.968;2023-09-12T07:01:29;31.47;;;20.97;;
3443;SDS011;1736;52.068;6.968;2023-09-12T07:03:56;31.90;;;19.30;;
3443;SDS011;1736;52.068;6.968;2023-09-12T07:06:22;39.10;;;23.10;;
3443;SDS011;1736;52.068;6.968;2023-09-12T07:08:49;36.93;;;24.00;;
3443;SDS011;1736;52.068;6.968;2023-09-12T07:11:17;37.90;;;22.67;;
3443;SDS011;1736;52.068;6.968;2023-09-12T07:13:44;49.90;;;25.00;;
3443;SDS011;1736;52.068;6.968;2023-09-12T07:16:11;41.80;;;24.70;;
3443;SDS011;1736;52.068;6.968;2023-09-12T07:18:38;36.97;;;22.80;;
3443;SDS011;1736;52.068;6.968;2023-09-12T07:21:05;39.20;;;21.80;;
3443;SDS011;1736;52.068;6.968;2023-09-12T07:23:32;34.80;;;22.30;;
3443;SDS011;1736;52.068;6.968;2023-09-12T07:25:59;38.27;;;21.17;;
3443;SDS011;1736;52.068;6.968;2023-09-12T07:28:29;31.63;;;21.60;;
3443;SDS011;1736;52.068;6.968;2023-09-12T07:30:57;35.73;;;22.57;;
3443;SDS011;1736;52.068;6.968;2023-09-12T07:33:24;37.30;;;21.87;;
3443;SDS011;1736;52.068;6.968;2023-09-12T07:35:51;36.97;;;21.43;;
3443;SDS011;1736;52.068;6.968;2023-09-12T07:38:18;37.47;;;22.77;;
3443;SDS011;1736;52.068;6.968;2023-09-12T07:40:47;33.60;;;21.00;;
3443;SDS011;1736;52.068;6.968;2023-09-12T07:43:13;38.87;;;22.67;;
3443;SDS011;1736;52.068;6.968;2023-09-12T07:45:41;32.00;;;21.03;;
3443;SDS011;1736;52.068;6.968;2023-09-12T07:48:08;41.63;;;22.67;;
3443;SDS011;1736;52.068;6.968;2023-09-12T07:50:36;34.43;;;21.67;;
3443;SDS011;1736;52.068;6.968;2023-09-12T07:53:04;38.30;;;23.47;;
3443;SDS011;1736;52.068;6.968;2023-09-12T07:55:30;36.80;;;23.23;;
3443;SDS011;1736;52.068;6.968;2023-09-12T07:58:01;38.33;;;23.17;;
3443;SDS011;1736;52.068;6.968;2023-09-12T08:00:27;37.50;;;22.73;;
3443;SDS011;1736;52.068;6.968;2023-09-12T08:02:55;44.40;;;23.30;;
3443;SDS011;1736;52.068;6.968;2023-09-12T08:05:22;43.00;;;25.43;;
3443;SDS011;1736;52.068;6.968;2023-09-12T08:07:48;43.20;;;23.33;;
3443;SDS011;1736;52.068;6.968;2023-09-12T08:10:15;47.80;;;24.37;;
3443;SDS011;1736;52.068;6.968;2023-09-12T08:12:41;34.73;;;22.43;;
3443;SDS011;1736;52.068;6.968;2023-09-12T08:15:08;39.33;;;23.50;;
3443;SDS011;1736;52.068;6.968;2023-09-12T08:17:35;44.90;;;24.83;;
3443;SDS011;1736;52.068;6.968;2023-09-12T08:20:05;42.17;;;24.70;;
3443;SDS011;1736;52.068;6.968;2023-09-12T08:22:34;43.07;;;24.87;;
3443;SDS011;1736;52.068;6.968;2023-09-12T08:25:01;46.93;;;24.20;;
3443;SDS011;1736;52.068;6.968;2023-09-12T08:27:28;49.03;;;26.07;;
3443;SDS011;1736;52.068;6.968;2023-09-12T08:29:55;43.10;;;24.07;;
3443;SDS011;1736;52.068;6.968;2023-09-12T08:32:21;42.47;;;24.83;;
3443;SDS011;1736;52.068;6.968;2023-09-12T08:34:48;44.65;;;27.35;;
3443;SDS011;1736;52.068;6.968;2023-09-12T08:37:16;47.43;;;25.63;;
3443;SDS011;1736;52.068;6.968;2023-09-12T08:39:43;44.70;;;25.70;;
3443;SDS011;1736;52.068;6.968;2023-09-12T08:42:11;47.57;;;25.60;;
3443;SDS011;1736;52.068;6.968;2023-09-12T08:44:39;45.20;;;24.50;;
3443;SDS011;1736;52.068;6.968;2023-09-12T08:47:07;45.73;;;25.07;;
3443;SDS011;1736;52.068;6.968;2023-09-12T08:49:35;46.50;;;26.60;;
3443;SDS011;1736;52.068;6.968;2023-09-12T08:52:02;42.40;;;25.57;;
3443;SDS011;1736;52.068;6.968;2023-09-12T08:54:30;38.67;;;23.33;;
3443;SDS011;1736;52.068;6.968;2023-09-12T08:56:57;35.97;;;22.70;;
3443;SDS011;1736;52.068;6.968;2023-09-12T08:59:24;36.90;;;23.10;;
3443;SDS011;1736;52.068;6.968;2023-09-12T09:01:51;32.93;;;21.07;;
3443;SDS011;1736;52.068;6.968;2023-09-12T09:04:19;30.50;;;20.90;;
3443;SDS011;1736;52.068;6.968;2023-09-12T09:06:46;30.57;;;19.03;;
3443;SDS011;1736;52.068;6.968;2023-09-12T09:09:14;35.57;;;22.70;;
3443;SDS011;1736;52.068;6.968;2023-09-12T09:11:43;36.10;;;22.23;;
3443;SDS011;1736;52.068;6.968;2023-09-12T09:14:10;29.50;;;19.47;;
3443;SDS011;1736;52.068;6.968;2023-09-12T09:16:36;30.97;;;18.70;;
3443;SDS011;1736;52.068;6.968;2023-09-12T09:19:04;31.40;;;17.80;;
3443;SDS011;1736;52.068;6.968;2023-09-12T09:21:35;31.13;;;19.50;;
3443;SDS011;1736;52.068;6.968;2023-09-12T09:24:03;26.67;;;20.03;;
3443;SDS011;1736;52.068;6.968;2023-09-12T09:26:44;26.97;;;18.07;;
3443;SDS011;1736;52.068;6.968;2023-09-12T09:29:13;27.97;;;18.13;;
3443;SDS011;1736;52.068;6.968;2023-09-12T09:31:41;27.20;;;17.50;;
3443;SDS011;1736;52.068;6.968;2023-09-12T09:34:12;23.23;;;16.50;;
3443;SDS011;1736;52.068;6.968;2023-09-12T09:36:42;26.97;;;17.53;;
3443;SDS011;1736;52.068;6.968;2023-09-12T09:39:10;20.83;;;16.03;;
3443;SDS011;1736;52.068;6.968;2023-09-12T09:41:38;20.20;;;14.70;;
3443;SDS011;1736;52.068;6.968;2023-09-12T09:44:07;24.90;;;16.33;;
3443;SDS011;1736;52.068;6.968;2023-09-12T09:46:34;18.70;;;14.50;;
3443;SDS011;1736;52.068;6.968;2023-09-12T09:49:01;22.13;;;13.77;;
3443;SDS011;1736;52.068;6.968;2023-09-12T09:51:29;23.47;;;16.90;;
3443;SDS011;1736;52.068;6.968;2023-09-12T09:53:57;22.13;;;16.37;;
3443;SDS011;1736;52.068;6.968;2023-09-12T09:56:25;24.90;;;15.07;;
3443;SDS011;1736;52.068;6.968;2023-09-12T09:58:52;19.97;;;15.20;;
3443;SDS011;1736;52.068;6.968;2023-09-12T10:01:22;21.17;;;14.80;;
3443;SDS011;1736;52.068;6.968;2023-09-12T10:03:50;20.73;;;15.07;;
3443;SDS011;1736;52.068;6.968;2023-09-12T10:06:17;21.97;;;16.33;;
3443;SDS011;1736;52.068;6.968;2023-09-12T10:08:51;22.53;;;17.10;;
3443;SDS011;1736;52.068;6.968;2023-09-12T10:11:20;22.07;;;16.57;;
3443;SDS011;1736;52.068;6.968;2023-09-12T10:13:49;24.27;;;18.30;;
3443;SDS011;1736;52.068;6.968;2023-09-12T10:16:22;20.40;;;16.47;;
3443;SDS011;1736;52.068;6.968;2023-09-12T10:18:56;27.13;;;16.97;;
3443;SDS011;1736;52.068;6.968;2023-09-12T10:21:28;21.27;;;16.97;;
3443;SDS011;1736;52.068;6.968;2023-09-12T10:23:56;22.83;;;16.77;;
3443;SDS011;1736;52.068;6.968;2023-09-12T10:26:25;25.07;;;16.30;;
3443;SDS011;1736;52.068;6.968;2023-09-12T10:28:52;18.87;;;13.90;;
3443;SDS011;1736;52.068;6.968;2023-09-12T10:31:21;19.57;;;15.30;;
3443;SDS011;1736;52.068;6.968;2023-09-12T10:33:50;17.53;;;14.00;;
3443;SDS011;1736;52.068;6.968;2023-09-12T10:36:17;20.83;;;14.13;;
3443;SDS011;1736;52.068;6.968;2023-09-12T10:38:46;18.87;;;14.50;;
3443;SDS011;1736;52.068;6.968;2023-09-12T10:41:15;18.57;;;14.00;;
3443;SDS011;1736;52.068;6.968;2023-09-12T10:43:43;19.63;;;14.37;;
3443;SDS011;1736;52.068;6.968;2023-09-12T10:46:12;19.40;;;13.73;;
3443;SDS011;1736;52.068;6.968;2023-09-12T10:48:41;17.50;;;12.97;;
3443;SDS011;1736;52.068;6.968;2023-09-12T10:51:07;20.43;;;15.07;;
3443;SDS011;1736;52.068;6.968;2023-09-12T10:53:36;19.93;;;14.60;;
3443;SDS011;1736;52.068;6.968;2023-09-12T10:56:14;24.80;;;14.83;;
3443;SDS011;1736;52.068;6.968;2023-09-12T11:01:40;10.03;;;8.67;;
3443;SDS011;1736;52.068;6.968;2023-09-12T11:04:32;8.20;;;7.37;;
3443;SDS011;1736;52.068;6.968;2023-09-12T11:07:02;9.20;;;8.03;;
3443;SDS011;1736;52.068;6.968;2023-09-12T11:10:17;15.27;;;11.87;;
3443;SDS011;1736;52.068;6.968;2023-09-12T11:12:47;14.60;;;11.03;;
3443;SDS011;1736;52.068;6.968;2023-09-12T11:15:15;16.40;;;10.70;;
3443;SDS011;1736;52.068;6.968;2023-09-12T11:17:42;12.03;;;9.77;;
3443;SDS011;1736;52.068;6.968;2023-09-12T11:20:11;13.47;;;10.20;;
3443;SDS011;1736;52.068;6.968;2023-09-12T11:22:41;12.80;;;10.93;;
3443;SDS011;1736;52.068;6.968;2023-09-12T11:25:15;14.23;;;11.47;;
3443;SDS011;1736;52.068;6.968;2023-09-12T11:27:44;15.50;;;12.50;;
3443;SDS011;1736;52.068;6.968;2023-09-12T11:30:27;15.90;;;12.40;;
3443;SDS011;1736;52.068;6.968;2023-09-12T11:32:56;17.77;;;11.53;;
3443;SDS011;1736;52.068;6.968;2023-09-12T11:35:25;15.30;;;12.50;;
3443;SDS011;1736;52.068;6.968;2023-09-12T11:37:53;15.07;;;12.97;;
3443;SDS011;1736;52.068;6.968;2023-09-12T11:40:22;15.50;;;12.60;;
3443;SDS011;1736;52.068;6.968;2023-09-12T11:42:50;12.60;;;9.10;;
3443;SDS011;1736;52.068;6.968;2023-09-12T11:45:17;11.90;;;9.77;;
3443;SDS011;1736;52.068;6.968;2023-09-12T11:47:45;11.70;;;9.10;;
3443;SDS011;1736;52.068;6.968;2023-09-12T11:50:27;16.10;;;10.30;;
3443;SDS011;1736;52.068;6.968;2023-09-12T11:53:00;10.77;;;9.67;;
3443;SDS011;1736;52.068;6.968;2023-09-12T11:55:30;11.30;;;9.20;;
3443;SDS011;1736;52.068;6.968;2023-09-12T11:57:57;11.60;;;9.40;;
3443;SDS011;1736;52.068;6.968;2023-09-12T12:00:24;10.13;;;7.80;;
3443;SDS011;1736;52.068;6.968;2023-09-12T12:02:52;10.40;;;7.97;;
3443;SDS011;1736;52.068;6.968;2023-09-12T12:05:19;12.60;;;7.17;;
3443;SDS011;1736;52.068;6.968;2023-09-12T12:07:47;8.50;;;6.80;;
3443;SDS011;1736;52.068;6.968;2023-09-12T12:10:16;9.07;;;6.83;;
3443;SDS011;1736;52.068;6.968;2023-09-12T12:12:43;12.23;;;8.37;;
3443;SDS011;1736;52.068;6.968;2023-09-12T12:15:10;11.47;;;7.60;;
3443;SDS011;1736;52.068;6.968;2023-09-12T12:17:37;9.77;;;8.20;;
3443;SDS011;1736;52.068;6.968;2023-09-12T12:20:07;8.90;;;7.60;;
3443;SDS011;1736;52.068;6.968;2023-09-12T12:22:35;8.97;;;7.30;;
3443;SDS011;1736;52.068;6.968;2023-09-12T12:25:06;10.23;;;8.07;;
3443;SDS011;1736;52.068;6.968;2023-09-12T12:27:34;11.53;;;7.50;;
3443;SDS011;1736;52.068;6.968;2023-09-12T12:30:02;9.07;;;7.53;;
3443;SDS011;1736;52.068;6.968;2023-09-12T12:32:29;7.67;;;6.87;;
3443;SDS011;1736;52.068;6.968;2023-09-12T12:34:56;6.57;;;5.90;;
3443;SDS011;1736;52.068;6.968;2023-09-12T12:37:27;7.60;;;6.03;;
3443;SDS011;1736;52.068;6.968;2023-09-12T12:39:55;8.77;;;5.80;;
3443;SDS011;1736;52.068;6.968;2023-09-12T12:42:24;6.13;;;5.53;;
3443;SDS011;1736;52.068;6.968;2023-09-12T12:44:52;7.60;;;6.10;;
3443;SDS011;1736;52.068;6.968;2023-09-12T12:47:20;9.43;;;6.60;;
3443;SDS011;1736;52.068;6.968;2023-09-12T12:49:50;8.90;;;6.53;;
3443;SDS011;1736;52.068;6.968;2023-09-12T12:52:18;9.43;;;6.70;;
3443;SDS011;1736;52.068;6.968;2023-09-12T12:54:48;9.30;;;7.03;;
3443;SDS011;1736;52.068;6.968;2023-09-12T12:57:18;13.23;;;8.50;;
3443;SDS011;1736;52.068;6.968;2023-09-12T12:59:47;8.90;;;7.30;;
3443;SDS011;1736;52.068;6.968;2023-09-12T13:02:14;11.50;;;6.87;;
3443;SDS011;1736;52.068;6.968;2023-09-12T13:04:40;8.53;;;7.30;;
3443;SDS011;1736;52.068;6.968;2023-09-12T13:07:07;7.07;;;6.37;;
3443;SDS011;1736;52.068;6.968;2023-09-12T13:09:33;9.67;;;6.77;;
3443;SDS011;1736;52.068;6.968;2023-09-12T13:12:00;8.67;;;6.60;;
3443;SDS011;1736;52.068;6.968;2023-09-12T13:14:27;10.30;;;7.60;;
3443;SDS011;1736;52.068;6.968;2023-09-12T13:16:57;7.87;;;7.03;;
3443;SDS011;1736;52.068;6.968;2023-09-12T13:19:24;8.83;;;6.00;;
3443;SDS011;1736;52.068;6.968;2023-09-12T13:21:51;11.23;;;6.40;;
3443;SDS011;1736;52.068;6.968;2023-09-12T13:24:17;7.70;;;6.53;;
3443;SDS011;1736;52.068;6.968;2023-09-12T13:26:44;7.83;;;6.27;;
3443;SDS011;1736;52.068;6.968;2023-09-12T13:29:10;7.80;;;6.33;;
3443;SDS011;1736;52.068;6.968;2023-09-12T13:31:37;8.57;;;7.27;;
3443;SDS011;1736;52.068;6.968;2023-09-12T13:34:05;6.90;;;6.20;;
3443;SDS011;1736;52.068;6.968;2023-09-12T13:36:31;6.07;;;5.47;;
3443;SDS011;1736;52.068;6.968;2023-09-12T13:38:58;9.97;;;5.73;;
3443;SDS011;1736;52.068;6.968;2023-09-12T13:41:24;8.63;;;6.27;;
3443;SDS011;1736;52.068;6.968;2023-09-12T13:43:51;10.17;;;6.90;;
3443;SDS011;1736;52.068;6.968;2023-09-12T13:46:18;9.17;;;7.00;;
3443;SDS011;1736;52.068;6.968;2023-09-12T13:48:44;9.23;;;6.93;;
3443;SDS011;1736;52.068;6.968;2023-09-12T13:51:12;8.20;;;7.00;;
3443;SDS011;1736;52.068;6.968;2023-09-12T13:53:39;6.50;;;5.90;;
3443;SDS011;1736;52.068;6.968;2023-09-12T13:56:05;8.47;;;5.53;;
3443;SDS011;1736;52.068;6.968;2023-09-12T13:58:33;6.83;;;5.83;;
3443;SDS011;1736;52.068;6.968;2023-09-12T14:01:00;8.00;;;5.63;;
3443;SDS011;1736;52.068;6.968;2023-09-12T14:03:27;7.60;;;6.40;;
3443;SDS011;1736;52.068;6.968;2023-09-12T14:05:54;7.63;;;6.60;;
3443;SDS011;1736;52.068;6.968;2023-09-12T14:08:22;7.23;;;6.47;;
3443;SDS011;1736;52.068;6.968;2023-09-12T14:10:49;8.73;;;6.83;;
3443;SDS011;1736;52.068;6.968;2023-09-12T14:13:15;9.40;;;6.63;;
3443;SDS011;1736;52.068;6.968;2023-09-12T14:15:42;7.60;;;6.73;;
3443;SDS011;1736;52.068;6.968;2023-09-12T14:18:08;6.97;;;5.77;;
3443;SDS011;1736;52.068;6.968;2023-09-12T14:20:35;7.03;;;5.23;;
3443;SDS011;1736;52.068;6.968;2023-09-12T14:23:02;6.40;;;5.70;;
3443;SDS011;1736;52.068;6.968;2023-09-12T14:25:30;7.40;;;5.67;;
3443;SDS011;1736;52.068;6.968;2023-09-12T14:27:56;7.83;;;6.13;;
3443;SDS011;1736;52.068;6.968;2023-09-12T14:30:23;8.73;;;6.33;;
3443;SDS011;1736;52.068;6.968;2023-09-12T14:32:51;8.50;;;6.47;;
3443;SDS011;1736;52.068;6.968;2023-09-12T14:35:18;7.40;;;6.07;;
3443;SDS011;1736;52.068;6.968;2023-09-12T14:37:45;6.43;;;5.80;;
3443;SDS011;1736;52.068;6.968;2023-09-12T14:40:13;5.80;;;5.20;;
3443;SDS011;1736;52.068;6.968;2023-09-12T14:42:43;7.57;;;5.70;;
3443;SDS011;1736;52.068;6.968;2023-09-12T14:45:10;6.87;;;5.47;;
3443;SDS011;1736;52.068;6.968;2023-09-12T14:47:36;7.43;;;4.97;;
3443;SDS011;1736;52.068;6.968;2023-09-12T14:50:03;6.70;;;6.00;;
3443;SDS011;1736;52.068;6.968;2023-09-12T14:52:30;9.13;;;6.20;;
3443;SDS011;1736;52.068;6.968;2023-09-12T14:54:58;8.73;;;6.30;;
3443;SDS011;1736;52.068;6.968;2023-09-12T14:57:25;8.00;;;6.20;;
3443;SDS011;1736;52.068;6.968;2023-09-12T14:59:53;6.97;;;4.83;;
3443;SDS011;1736;52.068;6.968;2023-09-12T15:02:22;5.63;;;5.03;;
3443;SDS011;1736;52.068;6.968;2023-09-12T15:04:56;5.70;;;5.10;;